createdAt,value
2019-02-08T00:01:38.071Z,15.35
2019-02-08T00:04:05.825Z,15.31
2019-02-08T00:06:33.658Z,15.30
2019-02-08T00:09:01.711Z,15.32
2019-02-08T00:11:29.571Z,15.43
2019-02-08T00:13:57.380Z,15.38
2019-02-08T00:16:28.776Z,15.26
2019-02-08T00:18:56.514Z,15.35
2019-02-08T00:21:24.292Z,15.44
2019-02-08T00:23:52.109Z,15.41
2019-02-08T00:26:19.858Z,15.33
2019-02-08T00:28:47.886Z,15.51
2019-02-08T00:31:15.825Z,15.52
2019-02-08T00:33:43.932Z,15.47
2019-02-08T00:36:11.691Z,15.30
2019-02-08T00:38:39.511Z,15.39
2019-02-08T00:41:07.684Z,15.40
2019-02-08T00:43:35.437Z,15.38
2019-02-08T00:46:03.220Z,15.41
2019-02-08T00:48:31.044Z,15.27
2019-02-08T00:50:59.361Z,15.33
2019-02-08T00:53:33.396Z,15.25
2019-02-08T00:55:56.669Z,15.39
2019-02-08T00:58:24.446Z,15.30
2019-02-08T01:00:52.273Z,15.38
2019-02-08T01:03:20.028Z,15.31
2019-02-08T01:05:48.083Z,15.34
2019-02-08T01:08:15.901Z,15.30
2019-02-08T01:10:43.844Z,15.39
2019-02-08T01:13:11.673Z,15.33
2019-02-08T01:15:39.436Z,15.38
2019-02-08T01:18:07.230Z,15.34
2019-02-08T01:20:35.115Z,15.31
2019-02-08T01:23:02.916Z,15.35
2019-02-08T01:25:30.766Z,15.39
2019-02-08T01:27:58.505Z,15.35
2019-02-08T01:30:27.245Z,15.32
2019-02-08T01:32:55.060Z,15.28
2019-02-08T01:35:23.169Z,15.31
2019-02-08T01:37:50.998Z,15.34
2019-02-08T01:40:19.811Z,15.30
2019-02-08T01:42:47.644Z,15.25
2019-02-08T01:45:16.659Z,15.21
2019-02-08T01:47:44.409Z,15.24
2019-02-08T01:50:13.713Z,15.20
2019-02-08T01:52:41.518Z,15.26
2019-02-08T01:55:09.324Z,15.28
2019-02-08T01:57:37.227Z,15.32
2019-02-08T02:00:06.421Z,15.37
2019-02-08T02:02:34.169Z,15.41
2019-02-08T02:05:03.414Z,15.45
2019-02-08T02:07:31.165Z,15.33
2019-02-08T02:10:00.052Z,15.33
2019-02-08T02:12:27.903Z,15.35
2019-02-08T02:14:55.641Z,15.35
2019-02-08T02:17:23.388Z,15.37
2019-02-08T02:19:51.206Z,15.35
2019-02-08T02:22:18.963Z,15.30
2019-02-08T02:24:47.108Z,15.36
2019-02-08T02:27:14.855Z,15.30
2019-02-08T02:29:42.626Z,15.28
2019-02-08T02:32:10.386Z,15.24
2019-02-08T02:34:38.306Z,15.39
2019-02-08T02:37:06.062Z,15.31
2019-02-08T02:39:33.931Z,15.43
2019-02-08T02:42:01.751Z,15.41
2019-02-08T02:44:29.496Z,15.39
2019-02-08T02:46:57.314Z,15.39
2019-02-08T02:49:25.131Z,15.35
2019-02-08T02:51:53.075Z,15.40
2019-02-08T02:54:20.830Z,15.30
2019-02-08T02:56:48.576Z,15.29
2019-02-08T02:59:16.332Z,15.33
2019-02-08T03:01:44.099Z,15.48
2019-02-08T03:04:11.921Z,15.42
2019-02-08T03:06:39.653Z,15.39
2019-02-08T03:09:08.705Z,15.34
2019-02-08T03:11:36.456Z,15.30
2019-02-08T03:14:04.295Z,15.27
2019-02-08T03:16:32.076Z,15.33
2019-02-08T03:18:59.816Z,15.33
2019-02-08T03:21:27.645Z,15.25
2019-02-08T03:23:55.435Z,14.95
2019-02-08T03:26:23.256Z,15.22
2019-02-08T03:28:51.042Z,15.38
2019-02-08T03:31:18.849Z,15.34
2019-02-08T03:33:47.961Z,15.31
2019-02-08T03:36:15.739Z,15.28
2019-02-08T03:38:43.676Z,15.25
2019-02-08T03:41:11.425Z,15.25
2019-02-08T03:43:39.173Z,15.29
2019-02-08T03:46:07.054Z,15.29
2019-02-08T03:48:35.120Z,15.27
2019-02-08T03:51:02.895Z,15.25
2019-02-08T03:53:30.639Z,15.55
2019-02-08T03:55:59.013Z,15.35
2019-02-08T03:58:26.897Z,15.25
2019-02-08T04:01:00.464Z,15.28
2019-02-08T04:03:28.209Z,15.39
2019-02-08T04:05:55.963Z,15.35
2019-02-08T04:08:23.693Z,15.26
2019-02-08T04:10:51.614Z,15.19
2019-02-08T04:13:19.344Z,15.24
2019-02-08T04:15:48.109Z,15.28
2019-02-08T04:18:15.985Z,15.26
2019-02-08T04:20:43.813Z,15.35
2019-02-08T04:23:11.586Z,15.27
2019-02-08T04:25:39.356Z,15.26
2019-02-08T04:28:07.169Z,15.22
2019-02-08T04:30:35.102Z,15.30
2019-02-08T04:33:02.952Z,15.40
2019-02-08T04:35:30.743Z,15.34
2019-02-08T04:37:58.667Z,15.30
2019-02-08T04:40:26.508Z,15.28
2019-02-08T04:42:54.260Z,15.27
2019-02-08T04:45:22.180Z,15.30
2019-02-08T04:47:50.308Z,15.18
2019-02-08T04:50:18.917Z,15.34
2019-02-08T04:52:46.740Z,15.38
2019-02-08T04:55:14.494Z,15.35
2019-02-08T04:57:42.240Z,15.39
2019-02-08T05:00:11.679Z,15.40
2019-02-08T05:02:39.524Z,15.27
2019-02-08T05:05:07.289Z,15.32
2019-02-08T05:07:35.049Z,15.39
2019-02-08T05:10:02.936Z,15.38
2019-02-08T05:12:30.688Z,15.53
2019-02-08T05:14:58.529Z,15.36
2019-02-08T05:17:26.322Z,15.40
2019-02-08T05:19:54.225Z,15.44
2019-02-08T05:22:22.020Z,15.37
2019-02-08T05:24:49.858Z,15.29
2019-02-08T05:27:17.977Z,15.29
2019-02-08T05:29:45.733Z,15.32
2019-02-08T05:32:13.785Z,15.37
2019-02-08T05:34:41.598Z,15.31
2019-02-08T05:37:09.657Z,15.38
2019-02-08T05:39:37.524Z,15.39
2019-02-08T05:42:05.446Z,15.37
2019-02-08T05:44:33.200Z,15.43
2019-02-08T05:47:00.965Z,15.37
2019-02-08T05:49:28.746Z,15.37
2019-02-08T05:51:56.467Z,15.31
2019-02-08T05:54:24.309Z,15.29
2019-02-08T05:56:52.101Z,15.34
2019-02-08T05:59:19.995Z,15.35
2019-02-08T06:01:47.742Z,15.34
2019-02-08T06:04:15.712Z,15.27
2019-02-08T06:06:43.521Z,15.32
2019-02-08T06:09:11.259Z,15.04
2019-02-08T06:11:39.109Z,15.25
2019-02-08T06:14:06.956Z,15.15
2019-02-08T06:16:34.778Z,15.23
2019-02-08T06:19:02.524Z,15.36
2019-02-08T06:21:30.281Z,15.37
2019-02-08T06:23:58.126Z,15.31
2019-02-08T06:26:25.903Z,15.36
2019-02-08T06:28:53.655Z,15.34
2019-02-08T06:31:21.420Z,15.49
2019-02-08T06:33:49.264Z,15.36
2019-02-08T06:36:17.050Z,15.40
2019-02-08T06:38:44.789Z,15.44
2019-02-08T06:41:12.636Z,15.32
2019-02-08T06:43:40.545Z,15.32
2019-02-08T06:46:08.361Z,15.36
2019-02-08T06:48:36.100Z,15.35
2019-02-08T06:51:04.212Z,15.26
2019-02-08T06:53:32.032Z,15.35
2019-02-08T06:55:59.778Z,15.41
2019-02-08T06:58:41.178Z,15.37
2019-02-08T07:01:22.400Z,15.37
2019-02-08T07:04:21.575Z,15.32
2019-02-08T07:07:14.631Z,15.36
2019-02-08T07:10:04.281Z,15.37
2019-02-08T07:12:51.133Z,15.44
2019-02-08T07:15:44.166Z,15.41
2019-02-08T07:18:23.564Z,15.37
2019-02-08T07:21:28.405Z,15.32
2019-02-08T07:24:21.214Z,15.38
2019-02-08T07:27:04.564Z,15.35
2019-02-08T07:29:51.418Z,15.21
2019-02-08T07:32:37.093Z,15.37
2019-02-08T07:35:22.809Z,15.43
2019-02-08T07:38:08.539Z,15.45
2019-02-08T07:40:56.480Z,15.43
2019-02-08T07:44:01.517Z,15.50
2019-02-08T07:47:00.633Z,15.37
2019-02-08T07:49:36.962Z,15.26
2019-02-08T07:52:29.925Z,15.35
2019-02-08T07:55:12.392Z,15.42
2019-02-08T07:58:02.453Z,15.28
2019-02-08T08:00:58.893Z,15.32
2019-02-08T08:03:50.179Z,15.43
2019-02-08T08:06:35.786Z,15.16
2019-02-08T08:09:18.373Z,15.31
2019-02-08T08:12:00.812Z,15.36
2019-02-08T08:14:45.690Z,15.48
2019-02-08T08:17:31.465Z,15.44
2019-02-08T08:20:17.496Z,15.34
2019-02-08T08:23:03.986Z,15.34
2019-02-08T08:25:57.020Z,15.41
2019-02-08T08:28:42.555Z,15.30
2019-02-08T08:31:14.868Z,15.37
2019-02-08T08:33:45.350Z,15.37
2019-02-08T08:36:30.098Z,15.26
2019-02-08T08:39:05.898Z,15.37
2019-02-08T08:41:43.024Z,15.27
2019-02-08T08:44:19.535Z,15.12
2019-02-08T08:47:06.915Z,15.14
2019-02-08T08:50:03.464Z,15.20
2019-02-08T08:52:50.552Z,15.27
2019-02-08T08:55:42.249Z,15.31
2019-02-08T08:58:14.900Z,15.19
2019-02-08T09:00:50.216Z,15.15
2019-02-08T09:03:23.614Z,15.27
2019-02-08T09:06:16.934Z,15.27
2019-02-08T09:09:05.146Z,15.28
2019-02-08T09:11:46.438Z,15.19
2019-02-08T09:14:36.350Z,15.18
2019-02-08T09:17:29.424Z,15.06
2019-02-08T09:20:05.145Z,15.11
2019-02-08T09:22:39.209Z,15.23
2019-02-08T09:25:19.761Z,15.21
2019-02-08T09:28:06.924Z,15.29
2019-02-08T09:30:45.247Z,15.18
2019-02-08T09:33:23.711Z,15.16
2019-02-08T09:36:22.828Z,15.17
2019-02-08T09:39:08.444Z,15.03
2019-02-08T09:41:54.426Z,15.12
2019-02-08T09:44:41.461Z,15.15
2019-02-08T09:47:27.108Z,14.97
2019-02-08T09:50:13.206Z,15.10
2019-02-08T09:52:59.634Z,15.08
2019-02-08T09:55:40.788Z,15.20
2019-02-08T09:58:28.303Z,15.13
2019-02-08T10:01:14.091Z,15.13
2019-02-08T10:03:51.300Z,15.19
2019-02-08T10:06:38.350Z,15.25
2019-02-08T10:09:31.452Z,15.13
2019-02-08T10:12:15.204Z,15.14
2019-02-08T10:14:48.565Z,15.14
2019-02-08T10:17:26.494Z,15.19
2019-02-08T10:20:13.644Z,15.19
2019-02-08T10:22:58.557Z,15.18
2019-02-08T10:25:54.829Z,15.09
2019-02-08T10:28:33.419Z,15.17
2019-02-08T10:31:19.342Z,15.22
2019-02-08T10:34:11.644Z,15.29
2019-02-08T10:36:47.814Z,15.23
2019-02-08T10:39:27.584Z,15.21
2019-02-08T10:42:09.157Z,15.31
2019-02-08T10:44:46.350Z,15.26
2019-02-08T10:47:32.427Z,15.18
2019-02-08T10:50:28.664Z,15.17
2019-02-08T10:53:04.751Z,15.13
2019-02-08T10:56:14.880Z,15.36
2019-02-08T10:58:57.908Z,15.33
2019-02-08T11:01:45.080Z,15.28
2019-02-08T11:04:24.664Z,15.19
2019-02-08T11:07:28.037Z,15.21
2019-02-08T11:10:21.554Z,15.25
2019-02-08T11:13:11.125Z,15.19
2019-02-08T11:15:52.800Z,15.25
2019-02-08T11:18:38.750Z,15.36
2019-02-08T11:21:06.517Z,15.36
2019-02-08T11:23:34.270Z,15.37
2019-02-08T11:26:02.029Z,15.36
2019-02-08T11:28:29.811Z,15.32
2019-02-08T11:30:57.659Z,15.27
2019-02-08T11:33:25.438Z,15.30
2019-02-08T11:35:53.297Z,15.38
2019-02-08T11:38:21.062Z,15.32
2019-02-08T11:40:52.287Z,15.25
2019-02-08T11:43:20.029Z,15.38
2019-02-08T11:45:52.261Z,15.29
2019-02-08T11:48:20.612Z,15.23
2019-02-08T11:50:48.396Z,15.25
2019-02-08T11:53:16.217Z,15.25
2019-02-08T11:55:44.007Z,15.18
2019-02-08T11:58:11.786Z,15.38
2019-02-08T12:00:44.125Z,15.42
2019-02-08T12:03:11.873Z,15.34
2019-02-08T12:05:39.877Z,15.28
2019-02-08T12:08:07.623Z,15.30
2019-02-08T12:10:35.411Z,15.21
2019-02-08T12:13:03.147Z,15.34
2019-02-08T12:15:30.974Z,15.28
2019-02-08T12:17:58.901Z,15.29
2019-02-08T12:20:26.650Z,15.31
2019-02-08T12:22:54.436Z,15.39
2019-02-08T12:25:22.194Z,15.42
2019-02-08T12:27:49.951Z,15.40
2019-02-08T12:30:19.899Z,15.34
2019-02-08T12:32:47.642Z,15.31
2019-02-08T12:35:15.445Z,15.33
2019-02-08T12:37:43.209Z,15.26
2019-02-08T12:40:10.949Z,15.31
2019-02-08T12:42:38.722Z,15.31
2019-02-08T12:45:08.277Z,15.35
2019-02-08T12:47:36.045Z,15.30
2019-02-08T12:50:04.280Z,15.40
2019-02-08T12:52:32.056Z,15.27
2019-02-08T12:54:59.805Z,15.37
2019-02-08T12:57:27.540Z,15.17
2019-02-08T12:59:55.281Z,15.24
2019-02-08T13:02:23.267Z,15.15
2019-02-08T13:04:51.100Z,15.09
2019-02-08T13:07:18.848Z,15.03
2019-02-08T13:09:46.600Z,15.10
2019-02-08T13:12:14.558Z,15.10
2019-02-08T13:14:42.489Z,15.22
2019-02-08T13:17:10.252Z,15.18
2019-02-08T13:19:38.005Z,15.11
2019-02-08T13:22:05.752Z,15.15
2019-02-08T13:24:33.569Z,15.26
2019-02-08T13:27:01.360Z,15.19
2019-02-08T13:29:31.520Z,15.23
2019-02-08T13:31:59.270Z,15.28
2019-02-08T13:34:34.316Z,15.39
2019-02-08T13:37:04.569Z,15.43
2019-02-08T13:39:36.814Z,15.39
2019-02-08T13:42:27.292Z,15.40
2019-02-08T13:44:55.367Z,15.31
2019-02-08T13:47:23.194Z,15.40
2019-02-08T13:49:56.161Z,15.35
2019-02-08T13:52:24.075Z,15.26
2019-02-08T13:54:52.002Z,15.29
2019-02-08T13:57:23.869Z,15.33
2019-02-08T13:59:55.101Z,15.28
2019-02-08T14:02:26.400Z,15.27
2019-02-08T14:04:54.274Z,15.32
2019-02-08T14:07:22.006Z,15.26
2019-02-08T14:09:51.540Z,15.21
2019-02-08T14:12:19.284Z,15.29
2019-02-08T14:14:47.037Z,15.21
2019-02-08T14:17:14.817Z,15.18
2019-02-08T14:19:42.858Z,15.32
2019-02-08T14:22:12.080Z,15.36
2019-02-08T14:24:54.621Z,15.25
2019-02-08T14:27:34.402Z,15.24
2019-02-08T14:30:30.915Z,14.17
2019-02-08T14:32:59.266Z,15.10
2019-02-08T14:35:27.278Z,15.23
2019-02-08T14:38:10.728Z,15.37
2019-02-08T14:40:47.891Z,15.34
2019-02-08T14:43:15.651Z,15.14
2019-02-08T14:45:43.593Z,15.28
2019-02-08T14:48:14.502Z,15.31
2019-02-08T14:50:42.265Z,15.20
2019-02-08T14:53:10.207Z,15.30
2019-02-08T14:55:37.967Z,15.28
2019-02-08T14:58:07.987Z,15.21
2019-02-08T15:00:35.897Z,15.20
2019-02-08T15:03:04.099Z,15.37
2019-02-08T15:05:31.861Z,15.33
2019-02-08T15:07:59.671Z,15.30
2019-02-08T15:10:28.924Z,15.23
2019-02-08T15:12:56.663Z,15.22
2019-02-08T15:15:24.405Z,15.36
2019-02-08T15:17:52.190Z,15.29
2019-02-08T15:20:21.185Z,15.39
2019-02-08T15:22:48.985Z,15.52
2019-02-08T15:25:16.920Z,15.41
2019-02-08T15:27:44.708Z,15.41
2019-02-08T15:30:13.556Z,15.33
2019-02-08T15:32:41.345Z,15.32
2019-02-08T15:35:09.262Z,15.25
2019-02-08T15:37:37.076Z,15.28
2019-02-08T15:40:05.764Z,15.14
2019-02-08T15:42:33.607Z,15.19
2019-02-08T15:45:01.424Z,15.30
2019-02-08T15:47:29.318Z,15.41
2019-02-08T15:49:57.257Z,15.30
2019-02-08T15:52:25.159Z,15.48
2019-02-08T15:54:52.918Z,15.45
2019-02-08T15:57:21.174Z,15.32
2019-02-08T15:59:48.932Z,15.42
2019-02-08T16:02:16.763Z,15.42
2019-02-08T16:04:44.522Z,15.44
2019-02-08T16:07:12.265Z,15.41
2019-02-08T16:09:40.358Z,15.39
2019-02-08T16:12:08.107Z,15.13
2019-02-08T16:14:35.836Z,15.23
2019-02-08T16:17:03.543Z,15.23
2019-02-08T16:19:31.330Z,15.48
2019-02-08T16:21:59.350Z,15.47
2019-02-08T16:24:27.128Z,15.59
2019-02-08T16:26:54.876Z,15.37
2019-02-08T16:29:22.675Z,15.47
2019-02-08T16:31:50.416Z,15.53
2019-02-08T16:34:18.146Z,15.52
2019-02-08T16:36:45.954Z,15.45
2019-02-08T16:39:13.720Z,15.52
2019-02-08T16:41:41.422Z,15.44
2019-02-08T16:44:09.131Z,15.34
2019-02-08T16:46:36.866Z,15.25
2019-02-08T16:49:04.607Z,15.35
2019-02-08T16:51:32.323Z,15.47
2019-02-08T16:54:00.030Z,15.53
2019-02-08T16:56:27.753Z,15.34
2019-02-08T16:58:56.288Z,15.50
2019-02-08T17:01:24.058Z,15.32
2019-02-08T17:03:51.846Z,15.29
2019-02-08T17:06:19.599Z,15.43
2019-02-08T17:08:47.466Z,15.50
2019-02-08T17:11:15.285Z,15.53
2019-02-08T17:13:43.150Z,15.34
2019-02-08T17:16:10.922Z,15.37
2019-02-08T17:18:39.085Z,15.35
2019-02-08T17:21:06.985Z,15.37
2019-02-08T17:23:34.734Z,15.48
2019-02-08T17:26:02.503Z,15.53
2019-02-08T17:28:30.743Z,15.50
2019-02-08T17:30:58.454Z,15.47
2019-02-08T17:33:26.263Z,15.50
2019-02-08T17:35:53.998Z,15.35
2019-02-08T17:38:21.724Z,15.41
2019-02-08T17:40:49.452Z,15.37
2019-02-08T17:43:17.455Z,15.37
2019-02-08T17:45:45.231Z,15.41
2019-02-08T17:48:13.746Z,15.46
2019-02-08T17:50:41.555Z,15.56
2019-02-08T17:53:09.587Z,15.41
2019-02-08T17:55:37.314Z,15.35
2019-02-08T17:58:05.252Z,15.26
2019-02-08T18:00:42.935Z,15.16
2019-02-08T18:03:10.752Z,15.36
2019-02-08T18:05:38.545Z,15.36
2019-02-08T18:08:06.725Z,15.48
2019-02-08T18:16:19.837Z,15.37
2019-02-08T18:18:48.810Z,15.15
2019-02-08T18:21:16.661Z,15.36
2019-02-08T18:23:44.497Z,15.20
2019-02-08T18:26:12.312Z,15.34
2019-02-08T18:28:40.333Z,15.30
2019-02-08T18:31:08.386Z,15.16
2019-02-08T18:33:36.228Z,15.19
2019-02-08T18:36:04.241Z,15.26
2019-02-08T18:38:32.075Z,15.30
2019-02-08T18:40:59.996Z,15.31
2019-02-08T18:43:27.762Z,15.35
2019-02-08T18:45:55.541Z,15.35
2019-02-08T18:48:23.304Z,15.27
2019-02-08T18:50:51.994Z,15.23
2019-02-08T18:53:20.166Z,15.31
2019-02-08T18:55:48.106Z,15.39
2019-02-08T18:58:19.595Z,15.26
2019-02-08T19:00:48.061Z,15.32
2019-02-08T19:03:16.069Z,15.28
2019-02-08T19:05:43.871Z,15.22
2019-02-08T19:08:11.923Z,15.24
2019-02-08T19:10:39.697Z,15.33
2019-02-08T19:13:07.493Z,15.34
2019-02-08T19:15:35.243Z,15.37
2019-02-08T19:18:03.015Z,15.26
2019-02-08T19:20:30.770Z,15.34
2019-02-08T19:22:58.820Z,15.40
2019-02-08T19:25:27.745Z,15.37
2019-02-08T19:27:55.531Z,15.33
2019-02-08T19:30:24.279Z,15.17
2019-02-08T19:32:52.028Z,15.34
2019-02-08T19:35:19.849Z,15.21
2019-02-08T19:37:47.581Z,15.17
2019-02-08T19:40:16.725Z,15.13
2019-02-08T19:42:44.488Z,15.10
2019-02-08T19:45:12.722Z,15.03
2019-02-08T19:47:40.478Z,15.10
2019-02-08T19:50:09.333Z,15.09
2019-02-08T19:52:37.080Z,15.17
2019-02-08T19:55:06.267Z,15.12
2019-02-08T19:57:34.012Z,15.08
2019-02-08T20:00:01.757Z,15.09
2019-02-08T20:02:29.577Z,15.01
2019-02-08T20:04:57.388Z,15.02
2019-02-08T20:07:25.137Z,15.05
2019-02-08T20:09:52.967Z,14.96
2019-02-08T20:12:21.157Z,14.93
2019-02-08T20:14:48.909Z,14.84
2019-02-08T20:17:16.663Z,14.85
2019-02-08T20:19:44.418Z,14.84
2019-02-08T20:22:12.286Z,14.88
2019-02-08T20:24:40.056Z,14.86
2019-02-08T20:27:07.868Z,14.79
2019-02-08T20:29:35.634Z,14.88
2019-02-08T20:32:03.432Z,14.78
2019-02-08T20:34:31.324Z,14.76
2019-02-08T20:36:59.069Z,14.61
2019-02-08T20:39:26.820Z,14.63
2019-02-08T20:41:54.598Z,14.75
2019-02-08T20:44:22.599Z,14.74
2019-02-08T20:46:50.420Z,14.81
2019-02-08T20:49:18.208Z,14.85
2019-02-08T20:51:46.335Z,14.79
2019-02-08T20:54:14.133Z,14.79
2019-02-08T20:56:41.962Z,14.85
2019-02-08T20:59:09.750Z,14.97
2019-02-08T21:01:37.504Z,14.90
2019-02-08T21:04:05.548Z,14.81
2019-02-08T21:06:33.411Z,14.72
2019-02-08T21:09:01.332Z,14.77
2019-02-08T21:11:29.136Z,14.77
2019-02-08T21:13:56.870Z,14.78
2019-02-08T21:16:24.606Z,14.74
2019-02-08T21:18:52.348Z,14.74
2019-02-08T21:21:20.147Z,14.67
2019-02-08T21:23:47.952Z,14.75
2019-02-08T21:26:15.757Z,14.68
2019-02-08T21:28:43.534Z,14.70
2019-02-08T21:31:12.390Z,14.79
2019-02-08T21:33:40.231Z,14.68
2019-02-08T21:36:08.072Z,14.64
2019-02-08T21:38:35.816Z,14.59
2019-02-08T21:41:03.571Z,14.61
2019-02-08T21:43:31.338Z,14.68
2019-02-08T21:45:59.061Z,14.72
2019-02-08T21:48:26.909Z,14.66
2019-02-08T21:50:55.148Z,14.76
2019-02-08T21:53:22.909Z,14.72
2019-02-08T21:55:50.645Z,14.67
2019-02-08T21:58:18.422Z,14.64
2019-02-08T22:00:46.156Z,14.69
2019-02-08T22:03:13.986Z,14.46
2019-02-08T22:05:43.436Z,14.57
2019-02-08T22:08:11.196Z,14.60
2019-02-08T22:10:39.001Z,14.60
2019-02-08T22:13:06.845Z,14.54
2019-02-08T22:15:35.017Z,14.62
2019-02-08T22:18:02.777Z,14.69
2019-02-08T22:20:30.586Z,14.49
2019-02-08T22:22:58.396Z,14.67
2019-02-08T22:25:26.284Z,14.62
2019-02-08T22:27:54.156Z,14.48
2019-02-08T22:30:22.328Z,14.55
2019-02-08T22:32:50.693Z,14.40
2019-02-08T22:35:19.575Z,14.57
2019-02-08T22:37:47.461Z,14.51
2019-02-08T22:40:16.148Z,14.46
2019-02-08T22:42:43.904Z,14.65
2019-02-08T22:45:15.958Z,14.55
2019-02-08T22:47:43.712Z,14.55
2019-02-08T22:50:11.804Z,14.47
2019-02-08T22:52:39.591Z,14.51
2019-02-08T22:55:08.698Z,14.45
2019-02-08T22:57:36.441Z,14.46
2019-02-08T23:00:05.680Z,14.44
2019-02-08T23:02:35.013Z,14.49
2019-02-08T23:05:02.748Z,14.53
2019-02-08T23:07:30.488Z,14.44
2019-02-08T23:09:58.261Z,14.55
2019-02-08T23:12:26.393Z,14.42
2019-02-08T23:14:54.140Z,14.33
2019-02-08T23:17:21.939Z,14.44
2019-02-08T23:19:49.748Z,14.41
2019-02-08T23:22:17.495Z,14.33
2019-02-08T23:24:45.277Z,14.43
2019-02-08T23:27:13.463Z,14.38
2019-02-08T23:29:41.200Z,14.36
2019-02-08T23:32:08.972Z,14.43
2019-02-08T23:34:36.795Z,14.57
2019-02-08T23:37:04.649Z,14.67
2019-02-08T23:39:32.419Z,14.61
2019-02-08T23:42:00.475Z,14.41
2019-02-08T23:44:28.409Z,14.38
2019-02-08T23:46:56.289Z,14.38
2019-02-08T23:49:24.767Z,14.32
2019-02-08T23:51:52.615Z,14.17
2019-02-08T23:54:20.470Z,14.43
2019-02-08T23:56:48.243Z,14.51
2019-02-08T23:59:15.975Z,14.38
